createdAt,value
2018-11-14T00:00:37.215Z,9.10
2018-11-14T00:03:10.891Z,7.20
2018-11-14T00:05:39.845Z,9.10
2018-11-14T00:08:10.851Z,8.10
2018-11-14T00:10:40.329Z,7.10
2018-11-14T00:13:12.916Z,11.07
2018-11-14T00:15:42.062Z,9.47
2018-11-14T00:18:11.032Z,10.00
2018-11-14T00:20:41.227Z,10.43
2018-11-14T00:23:11.416Z,7.83
2018-11-14T00:25:44.568Z,9.07
2018-11-14T00:28:17.876Z,12.20
2018-11-14T00:30:51.561Z,9.23
2018-11-14T00:33:20.573Z,12.60
2018-11-14T00:35:51.513Z,9.40
2018-11-14T00:38:20.491Z,16.67
2018-11-14T00:40:51.397Z,18.43
2018-11-14T00:43:20.304Z,10.50
2018-11-14T00:45:49.284Z,11.23
2018-11-14T00:48:20.236Z,19.33
2018-11-14T00:50:49.228Z,13.40
2018-11-14T00:53:18.253Z,15.97
2018-11-14T00:55:50.452Z,10.67
2018-11-14T00:58:19.342Z,21.50
2018-11-14T01:00:50.896Z,12.00
2018-11-14T01:03:20.278Z,18.57
2018-11-14T01:05:53.385Z,10.00
2018-11-14T01:08:22.536Z,12.17
2018-11-14T01:10:52.150Z,8.47
2018-11-14T01:13:23.596Z,17.63
2018-11-14T01:15:52.579Z,13.27
2018-11-14T01:18:26.707Z,10.50
2018-11-14T01:20:57.259Z,12.97
2018-11-14T01:23:30.322Z,12.50
2018-11-14T01:26:00.996Z,14.20
2018-11-14T01:28:32.766Z,17.93
2018-11-14T01:31:01.821Z,12.10
2018-11-14T01:33:33.583Z,7.87
2018-11-14T01:36:04.471Z,10.40
2018-11-14T01:38:36.914Z,13.20
2018-11-14T01:41:06.213Z,12.57
2018-11-14T01:43:35.117Z,15.00
2018-11-14T01:46:04.081Z,8.23
2018-11-14T01:48:36.374Z,9.47
2018-11-14T01:51:09.235Z,10.20
2018-11-14T01:53:38.138Z,11.90
2018-11-14T01:56:09.277Z,12.70
2018-11-14T01:58:40.480Z,28.57
2018-11-14T02:01:10.744Z,16.63
2018-11-14T02:03:39.849Z,9.50
2018-11-14T02:06:09.013Z,7.90
2018-11-14T02:08:38.134Z,11.13
2018-11-14T02:11:10.708Z,10.63
2018-11-14T02:13:41.649Z,12.23
2018-11-14T02:16:13.182Z,11.30
2018-11-14T02:18:42.118Z,17.13
2018-11-14T02:21:10.993Z,8.00
2018-11-14T02:23:43.198Z,9.70
2018-11-14T02:26:14.616Z,9.00
2018-11-14T02:28:43.577Z,9.47
2018-11-14T02:31:12.509Z,20.57
2018-11-14T02:33:41.408Z,13.10
2018-11-14T02:36:14.817Z,7.53
2018-11-14T02:38:46.370Z,10.87
2018-11-14T02:41:17.984Z,8.43
2018-11-14T02:43:50.364Z,10.40
2018-11-14T02:46:19.418Z,9.73
2018-11-14T02:48:53.608Z,9.03
2018-11-14T02:51:27.070Z,7.40
2018-11-14T02:53:55.989Z,9.43
2018-11-14T02:56:24.902Z,13.33
2018-11-14T02:58:53.803Z,8.40
2018-11-14T03:01:26.016Z,7.03
2018-11-14T03:04:00.102Z,10.43
2018-11-14T03:06:33.876Z,12.33
2018-11-14T03:09:05.078Z,14.80
2018-11-14T03:11:38.109Z,11.50
2018-11-14T03:14:09.053Z,9.83
2018-11-14T03:16:37.893Z,8.20
2018-11-14T03:19:10.060Z,8.53
2018-11-14T03:21:42.797Z,7.60
2018-11-14T03:24:11.928Z,10.53
2018-11-14T03:26:41.237Z,8.97
2018-11-14T03:29:13.188Z,10.07
2018-11-14T03:31:42.171Z,7.37
2018-11-14T03:34:15.081Z,9.77
2018-11-14T03:36:44.491Z,13.43
2018-11-14T03:39:18.502Z,12.60
2018-11-14T03:41:48.226Z,9.23
2018-11-14T03:44:17.474Z,14.70
2018-11-14T03:46:46.976Z,10.30
2018-11-14T03:49:17.060Z,12.03
2018-11-14T03:51:48.383Z,11.77
2018-11-14T03:54:17.660Z,11.57
2018-11-14T03:56:46.788Z,11.17
2018-11-14T03:59:15.989Z,6.57
2018-11-14T04:01:45.439Z,6.77
2018-11-14T04:04:20.630Z,10.33
2018-11-14T04:06:50.794Z,7.20
2018-11-14T04:09:20.008Z,11.30
2018-11-14T04:11:49.300Z,10.00
2018-11-14T04:14:18.497Z,13.63
2018-11-14T04:16:49.869Z,7.87
2018-11-14T04:19:21.333Z,5.03
2018-11-14T04:21:53.742Z,7.77
2018-11-14T04:24:27.010Z,8.53
2018-11-14T04:27:05.030Z,8.87
2018-11-14T04:29:37.641Z,8.77
2018-11-14T04:32:09.972Z,9.40
2018-11-14T04:34:41.757Z,9.33
2018-11-14T04:37:13.140Z,9.67
2018-11-14T04:39:43.410Z,8.77
2018-11-14T04:42:12.802Z,10.47
2018-11-14T04:44:45.425Z,9.00
2018-11-14T04:47:16.160Z,9.37
2018-11-14T04:49:45.075Z,10.43
2018-11-14T04:52:14.197Z,11.33
2018-11-14T04:54:44.864Z,12.23
2018-11-14T04:57:13.879Z,10.40
2018-11-14T04:59:42.811Z,9.10
2018-11-14T05:02:14.480Z,8.70
2018-11-14T05:04:48.403Z,11.87
2018-11-14T05:07:22.804Z,10.70
2018-11-14T05:09:51.735Z,10.53
2018-11-14T05:12:20.613Z,9.93
2018-11-14T05:14:51.821Z,7.30
2018-11-14T05:17:21.547Z,10.07
2018-11-14T05:19:55.976Z,8.73
2018-11-14T05:22:26.305Z,7.07
2018-11-14T05:24:57.266Z,10.77
2018-11-14T05:27:26.872Z,11.57
2018-11-14T05:29:59.614Z,9.57
2018-11-14T05:32:29.124Z,11.73
2018-11-14T05:34:58.085Z,13.47
2018-11-14T05:37:29.417Z,13.87
2018-11-14T05:39:59.015Z,12.93
2018-11-14T05:42:28.044Z,13.70
2018-11-14T05:44:58.391Z,11.73
2018-11-14T05:47:29.997Z,28.27
2018-11-14T05:50:02.203Z,13.70
2018-11-14T05:52:36.536Z,12.83
2018-11-14T05:55:06.353Z,15.40
2018-11-14T05:57:35.463Z,12.30
2018-11-14T06:00:07.953Z,14.20
2018-11-14T06:02:47.250Z,14.20
2018-11-14T06:05:18.100Z,12.60
2018-11-14T06:07:49.022Z,11.90
2018-11-14T06:10:23.025Z,14.00
2018-11-14T06:12:56.265Z,19.70
2018-11-14T06:15:28.694Z,13.33
2018-11-14T06:18:00.482Z,12.87
2018-11-14T06:20:29.973Z,9.33
2018-11-14T06:22:59.250Z,13.60
2018-11-14T06:25:34.664Z,9.03
2018-11-14T06:28:05.431Z,11.67
2018-11-14T06:30:36.146Z,11.90
2018-11-14T06:33:08.017Z,8.37
2018-11-14T06:35:37.495Z,10.60
2018-11-14T06:38:06.868Z,9.63
2018-11-14T06:40:36.319Z,11.43
2018-11-14T06:43:09.496Z,9.00
2018-11-14T06:45:41.324Z,10.80
2018-11-14T06:48:11.250Z,15.80
2018-11-14T06:50:40.937Z,11.77
2018-11-14T06:53:12.951Z,11.80
2018-11-14T06:55:42.131Z,17.37
2018-11-14T06:58:11.180Z,17.60
2018-11-14T07:00:40.286Z,12.77
2018-11-14T07:03:09.386Z,17.03
2018-11-14T07:05:38.782Z,16.47
2018-11-14T07:08:08.122Z,15.43
2018-11-14T07:10:37.692Z,16.50
2018-11-14T07:13:12.009Z,15.60
2018-11-14T07:15:41.522Z,18.83
2018-11-14T07:18:11.467Z,17.20
2018-11-14T07:20:42.945Z,19.20
2018-11-14T07:23:12.080Z,14.87
2018-11-14T07:25:41.376Z,12.73
2018-11-14T07:28:11.497Z,13.13
2018-11-14T07:30:40.879Z,11.43
2018-11-14T07:33:11.022Z,11.23
2018-11-14T07:35:40.339Z,17.60
2018-11-14T07:38:42.709Z,11.43
2018-11-14T07:41:13.219Z,12.70
2018-11-14T07:43:42.754Z,10.50
2018-11-14T07:46:12.233Z,12.67
2018-11-14T07:48:42.694Z,13.80
2018-11-14T07:51:12.025Z,20.10
2018-11-14T07:53:41.003Z,21.93
2018-11-14T07:56:10.098Z,15.20
2018-11-14T07:58:39.097Z,14.30
2018-11-14T08:01:08.526Z,10.67
2018-11-14T08:03:38.216Z,10.47
2018-11-14T08:06:07.395Z,11.30
2018-11-14T08:08:37.568Z,14.00
2018-11-14T08:11:07.450Z,11.50
2018-11-14T08:13:37.459Z,10.20
2018-11-14T08:16:07.479Z,10.17
2018-11-14T08:18:36.514Z,6.20
2018-11-14T08:21:05.989Z,23.37
2018-11-14T08:23:34.914Z,8.10
2018-11-14T08:26:03.980Z,9.63
2018-11-14T08:28:33.001Z,11.13
2018-11-14T08:31:02.067Z,7.27
2018-11-14T08:33:31.163Z,8.07
2018-11-14T08:36:00.334Z,9.23
2018-11-14T08:38:29.321Z,19.50
2018-11-14T08:40:58.457Z,11.57
2018-11-14T08:43:27.487Z,10.27
2018-11-14T08:45:56.536Z,10.77
2018-11-14T08:48:26.396Z,13.37
2018-11-14T08:50:55.964Z,23.77
2018-11-14T08:53:25.584Z,19.77
2018-11-14T08:55:55.364Z,12.37
2018-11-14T08:58:25.064Z,12.97
2018-11-14T09:00:55.322Z,19.50
2018-11-14T09:03:28.296Z,14.20
2018-11-14T09:05:58.495Z,12.53
2018-11-14T09:08:28.425Z,10.27
2018-11-14T09:10:57.992Z,21.30
2018-11-14T09:13:27.673Z,17.27
2018-11-14T09:15:57.231Z,18.00
2018-11-14T09:18:27.794Z,16.03
2018-11-14T09:20:57.348Z,13.90
2018-11-14T09:23:26.758Z,13.40
2018-11-14T09:25:56.397Z,15.77
2018-11-14T09:28:26.044Z,17.73
2018-11-14T09:30:55.550Z,17.60
2018-11-14T09:33:24.583Z,23.93
2018-11-14T09:35:54.256Z,18.63
2018-11-14T09:38:23.361Z,19.87
2018-11-14T09:40:52.381Z,27.63
2018-11-14T09:43:21.335Z,27.50
2018-11-14T09:45:50.496Z,18.00
2018-11-14T09:48:19.529Z,18.80
2018-11-14T09:50:48.734Z,23.83
2018-11-14T09:53:20.803Z,23.23
2018-11-14T09:55:50.148Z,22.70
2018-11-14T09:58:19.269Z,64.00
2018-11-14T10:00:48.470Z,26.07
2018-11-14T10:03:18.283Z,34.77
2018-11-14T10:05:47.305Z,24.30
2018-11-14T10:08:16.783Z,25.60
2018-11-14T10:10:46.460Z,22.80
2018-11-14T10:13:15.990Z,20.13
2018-11-14T10:15:45.377Z,33.10
2018-11-14T10:18:14.390Z,22.13
2018-11-14T10:20:43.595Z,34.57
2018-11-14T10:23:13.086Z,32.30
2018-11-14T10:25:42.289Z,23.10
2018-11-14T10:28:11.252Z,22.93
2018-11-14T10:30:40.815Z,35.23
2018-11-14T10:33:14.701Z,25.50
2018-11-14T10:35:43.845Z,23.70
2018-11-14T10:38:13.100Z,36.73
2018-11-14T10:40:42.505Z,22.70
2018-11-14T10:43:11.683Z,19.60
2018-11-14T10:45:40.811Z,26.63
2018-11-14T10:48:12.546Z,30.97
2018-11-14T10:50:42.643Z,28.13
2018-11-14T10:53:12.162Z,28.00
2018-11-14T10:55:41.242Z,25.60
2018-11-14T10:58:10.519Z,35.50
2018-11-14T11:00:44.694Z,25.60
2018-11-14T11:05:25.749Z,24.47
2018-11-14T11:08:00.229Z,42.33
2018-11-14T11:10:34.297Z,23.43
2018-11-14T11:13:09.750Z,21.80
2018-11-14T11:15:43.564Z,23.57
2018-11-14T11:18:14.665Z,25.53
2018-11-14T11:20:43.313Z,38.77
2018-11-14T11:23:11.958Z,23.37
2018-11-14T11:25:40.875Z,25.57
2018-11-14T11:28:09.508Z,29.63
2018-11-14T11:30:38.493Z,27.07
2018-11-14T11:33:09.325Z,19.70
2018-11-14T11:35:37.961Z,17.57
2018-11-14T11:38:06.941Z,22.70
2018-11-14T11:40:35.780Z,25.20
2018-11-14T11:43:05.269Z,17.53
2018-11-14T11:45:34.572Z,17.80
2018-11-14T11:48:03.221Z,18.30
2018-11-14T11:50:31.881Z,18.87
2018-11-14T11:53:00.889Z,16.20
2018-11-14T11:55:29.576Z,9.63
2018-11-14T11:57:58.933Z,15.83
2018-11-14T12:00:27.766Z,21.27
2018-11-14T12:02:56.871Z,11.90
2018-11-14T12:05:26.051Z,22.67
2018-11-14T12:07:54.913Z,15.33
2018-11-14T12:10:23.550Z,25.67
2018-11-14T12:12:53.541Z,9.87
2018-11-14T12:15:24.195Z,17.33
2018-11-14T12:17:54.875Z,19.27
2018-11-14T12:20:26.159Z,13.90
2018-11-14T12:22:56.698Z,11.73
2018-11-14T12:25:29.025Z,16.93
2018-11-14T12:28:00.294Z,16.67
2018-11-14T12:30:30.942Z,15.00
2018-11-14T12:32:59.690Z,18.57
2018-11-14T12:35:28.305Z,13.20
2018-11-14T12:37:57.062Z,9.67
2018-11-14T12:40:25.667Z,14.37
2018-11-14T12:42:54.301Z,9.90
2018-11-14T12:45:22.939Z,21.53
2018-11-14T12:47:51.597Z,11.53
2018-11-14T12:50:20.197Z,12.13
2018-11-14T12:52:48.923Z,15.93
2018-11-14T12:55:19.728Z,15.87
2018-11-14T12:57:48.349Z,10.27
2018-11-14T13:00:18.440Z,15.90
2018-11-14T13:02:49.045Z,11.93
2018-11-14T13:05:17.764Z,12.30
2018-11-14T13:07:46.609Z,12.90
2018-11-14T13:10:16.323Z,16.63
2018-11-14T13:12:45.676Z,14.03
2018-11-14T13:15:15.302Z,13.87
2018-11-14T13:17:44.413Z,19.83
2018-11-14T13:20:15.941Z,13.83
2018-11-14T13:22:45.000Z,15.87
2018-11-14T13:25:14.297Z,15.50
2018-11-14T13:27:44.098Z,16.20
2018-11-14T13:30:14.849Z,16.43
2018-11-14T13:32:43.978Z,15.13
2018-11-14T13:35:14.028Z,12.47
2018-11-14T13:37:43.875Z,14.50
2018-11-14T13:40:13.077Z,22.47
2018-11-14T13:42:42.459Z,13.87
2018-11-14T13:45:13.205Z,12.93
2018-11-14T13:47:42.152Z,10.93
2018-11-14T13:50:12.765Z,14.40
2018-11-14T13:52:41.812Z,14.97
2018-11-14T13:55:12.138Z,11.67
2018-11-14T13:57:41.317Z,14.53
2018-11-14T14:00:11.441Z,11.20
2018-11-14T14:02:40.253Z,11.60
2018-11-14T14:05:11.098Z,11.63
2018-11-14T14:07:39.818Z,15.10
2018-11-14T14:10:09.904Z,11.37
2018-11-14T14:12:38.549Z,13.07
2018-11-14T14:15:09.554Z,9.17
2018-11-14T14:17:38.207Z,9.23
2018-11-14T14:20:07.922Z,9.33
2018-11-14T14:22:36.533Z,6.03
2018-11-14T14:25:06.453Z,8.27
2018-11-14T14:27:35.080Z,8.00
2018-11-14T14:30:03.827Z,10.57
2018-11-14T14:32:32.433Z,6.63
2018-11-14T14:35:01.065Z,8.80
2018-11-14T14:37:29.753Z,11.87
2018-11-14T14:39:58.325Z,24.53
2018-11-14T14:42:27.024Z,12.07
2018-11-14T14:44:55.830Z,18.83
2018-11-14T14:47:24.541Z,9.40
2018-11-14T14:49:53.137Z,21.00
2018-11-14T14:52:22.769Z,17.23
2018-11-14T14:54:51.381Z,12.87
2018-11-14T14:57:19.998Z,9.10
2018-11-14T14:59:48.596Z,8.90
2018-11-14T15:02:17.221Z,10.60
2018-11-14T15:04:46.144Z,18.63
2018-11-14T15:07:14.769Z,16.20
2018-11-14T15:09:43.474Z,16.03
2018-11-14T15:12:12.005Z,20.03
2018-11-14T15:14:40.628Z,21.77
2018-11-14T15:17:09.282Z,28.40
2018-11-14T15:19:37.878Z,15.90
2018-11-14T15:22:08.013Z,9.83
2018-11-14T15:24:36.633Z,11.80
2018-11-14T15:27:05.784Z,11.30
2018-11-14T15:29:34.429Z,9.43
2018-11-14T15:32:03.013Z,16.37
2018-11-14T15:34:32.052Z,9.63
2018-11-14T15:37:00.778Z,18.03
2018-11-14T15:39:31.391Z,11.40
2018-11-14T15:41:59.992Z,13.73
2018-11-14T15:44:30.312Z,13.67
2018-11-14T15:46:58.928Z,13.33
2018-11-14T15:49:27.542Z,10.67
2018-11-14T15:51:56.173Z,9.27
2018-11-14T15:54:24.806Z,8.60
2018-11-14T15:56:53.532Z,7.87
2018-11-14T15:59:22.342Z,9.57
2018-11-14T16:01:51.121Z,9.37
2018-11-14T16:04:19.754Z,10.57
2018-11-14T16:06:48.514Z,9.00
2018-11-14T16:09:17.146Z,13.43
2018-11-14T16:11:45.769Z,8.57
2018-11-14T16:14:14.385Z,7.23
2018-11-14T16:16:43.019Z,13.17
2018-11-14T16:19:11.629Z,11.77
2018-11-14T16:21:40.280Z,14.40
2018-11-14T16:24:08.891Z,11.13
2018-11-14T16:26:37.513Z,12.83
2018-11-14T16:29:06.264Z,12.00
2018-11-14T16:31:35.220Z,12.50
2018-11-14T16:34:03.849Z,15.83
2018-11-14T16:36:32.685Z,15.20
2018-11-14T16:39:01.592Z,15.43
2018-11-14T16:41:30.236Z,11.93
2018-11-14T16:43:58.869Z,12.60
2018-11-14T16:46:27.480Z,9.33
2018-11-14T16:48:56.078Z,7.07
2018-11-14T16:51:24.714Z,7.33
2018-11-14T16:53:53.434Z,10.70
2018-11-14T16:56:22.153Z,10.53
2018-11-14T16:58:50.772Z,12.80
2018-11-14T17:01:19.406Z,10.33
2018-11-14T17:03:48.073Z,9.83
2018-11-14T17:06:16.750Z,11.43
2018-11-14T17:08:45.393Z,16.50
2018-11-14T17:11:14.045Z,9.53
2018-11-14T17:13:42.657Z,11.63
2018-11-14T17:16:11.330Z,11.20
2018-11-14T17:18:39.948Z,14.90
2018-11-14T17:21:08.625Z,11.17
2018-11-14T17:23:37.258Z,13.90
2018-11-14T17:26:06.258Z,10.70
2018-11-14T17:28:34.881Z,14.40
2018-11-14T17:31:03.523Z,21.23
2018-11-14T17:33:32.129Z,13.77
2018-11-14T17:36:00.906Z,19.90
2018-11-14T17:38:29.429Z,14.80
2018-11-14T17:40:58.065Z,11.73
2018-11-14T17:43:26.667Z,12.37
2018-11-14T17:45:55.283Z,13.63
2018-11-14T17:48:23.896Z,10.83
2018-11-14T17:50:52.574Z,13.40
2018-11-14T17:53:21.164Z,18.57
2018-11-14T17:55:49.828Z,15.30
2018-11-14T17:58:18.420Z,12.70
2018-11-14T18:00:47.071Z,17.37
2018-11-14T18:03:15.689Z,15.57
2018-11-14T18:05:44.331Z,15.70
2018-11-14T18:08:12.953Z,15.37
2018-11-14T18:10:41.584Z,19.80
2018-11-14T18:13:10.186Z,20.10
2018-11-14T18:15:38.793Z,18.77
2018-11-14T18:18:07.409Z,22.60
2018-11-14T18:20:36.053Z,18.10
2018-11-14T18:23:04.684Z,19.33
2018-11-14T18:25:33.325Z,24.80
2018-11-14T18:28:01.942Z,28.73
2018-11-14T18:30:31.360Z,22.03
2018-11-14T18:33:01.220Z,21.70
2018-11-14T18:35:29.917Z,19.67
2018-11-14T18:37:59.260Z,18.20
2018-11-14T18:40:30.383Z,18.47
2018-11-14T18:42:59.004Z,17.97
2018-11-14T18:45:29.927Z,21.87
2018-11-14T18:47:59.439Z,22.33
2018-11-14T18:50:28.315Z,26.43
2018-11-14T18:52:56.922Z,25.27
2018-11-14T18:55:26.932Z,23.60
2018-11-14T18:57:55.733Z,27.60
2018-11-14T19:00:25.844Z,26.27
2018-11-14T19:02:54.486Z,25.00
2018-11-14T19:05:23.151Z,32.40
2018-11-14T19:07:51.796Z,27.20
2018-11-14T19:10:21.912Z,25.77
2018-11-14T19:12:51.193Z,25.03
2018-11-14T19:15:24.083Z,28.53
2018-11-14T19:17:52.728Z,26.03
2018-11-14T19:20:22.721Z,26.77
2018-11-14T19:22:51.786Z,29.03
2018-11-14T19:25:22.730Z,27.97
2018-11-14T19:27:51.585Z,26.17
2018-11-14T19:30:22.456Z,33.23
2018-11-14T19:32:51.933Z,37.87
2018-11-14T19:35:20.691Z,33.20
2018-11-14T19:37:50.423Z,37.07
2018-11-14T19:40:21.833Z,33.63
2018-11-14T19:42:51.733Z,31.67
2018-11-14T19:45:22.465Z,38.13
2018-11-14T19:47:51.128Z,37.27
2018-11-14T19:50:20.647Z,28.10
2018-11-14T19:52:49.669Z,32.10
2018-11-14T19:55:19.635Z,32.97
2018-11-14T19:57:49.205Z,32.53
2018-11-14T20:00:21.298Z,32.77
2018-11-14T20:02:49.912Z,29.53
2018-11-14T20:05:18.985Z,32.90
2018-11-14T20:07:47.698Z,26.97
2018-11-14T20:10:18.716Z,42.90
2018-11-14T20:12:47.885Z,30.20
2018-11-14T20:15:17.856Z,33.70
2018-11-14T20:17:47.208Z,32.17
2018-11-14T20:20:18.308Z,33.53
2018-11-14T20:22:47.068Z,37.83
2018-11-14T20:25:15.793Z,27.90
2018-11-14T20:27:44.782Z,39.73
2018-11-14T20:30:17.663Z,33.20
2018-11-14T20:32:46.320Z,35.47
2018-11-14T20:35:16.221Z,30.23
2018-11-14T20:37:44.833Z,34.70
2018-11-14T20:40:14.811Z,29.93
2018-11-14T20:42:43.804Z,39.27
2018-11-14T20:45:14.243Z,27.03
2018-11-14T20:47:42.929Z,30.93
2018-11-14T20:50:14.083Z,34.80
2018-11-14T20:52:43.113Z,26.87
2018-11-14T20:55:12.227Z,32.57
2018-11-14T20:57:41.491Z,27.13
2018-11-14T21:00:17.157Z,28.83
2018-11-14T21:02:45.766Z,30.00
2018-11-14T21:05:14.396Z,31.47
2018-11-14T21:07:43.616Z,25.90
2018-11-14T21:10:13.958Z,28.37
2018-11-14T21:12:42.931Z,33.03
2018-11-14T21:15:16.597Z,28.43
2018-11-14T21:17:45.324Z,26.27
2018-11-14T21:20:14.006Z,30.90
2018-11-14T21:22:42.722Z,36.13
2018-11-14T21:25:13.128Z,30.23
2018-11-14T21:27:42.808Z,29.43
2018-11-14T21:30:13.013Z,29.47
2018-11-14T21:32:42.089Z,28.40
2018-11-14T21:35:24.644Z,26.40
2018-11-14T21:37:55.413Z,35.57
2018-11-14T21:40:24.081Z,26.43
2018-11-14T21:42:52.700Z,28.90
2018-11-14T21:45:22.572Z,31.73
2018-11-14T21:47:56.296Z,32.23
2018-11-14T21:50:25.935Z,29.73
2018-11-14T21:52:54.597Z,26.43
2018-11-14T21:55:23.222Z,33.20
2018-11-14T21:57:51.828Z,30.57
2018-11-14T22:00:22.866Z,31.20
2018-11-14T22:02:52.852Z,25.90
2018-11-14T22:05:21.541Z,27.13
2018-11-14T22:07:50.158Z,28.10
2018-11-14T22:10:20.252Z,22.83
2018-11-14T22:12:49.200Z,30.33
2018-11-14T22:15:19.101Z,24.97
2018-11-14T22:17:47.777Z,25.50
2018-11-14T22:20:17.669Z,27.77
2018-11-14T22:22:46.782Z,22.23
2018-11-14T22:25:18.653Z,40.17
2018-11-14T22:27:47.410Z,27.63
2018-11-14T22:30:18.329Z,20.90
2018-11-14T22:32:46.985Z,25.40
2018-11-14T22:35:16.738Z,35.10
2018-11-14T22:37:45.345Z,27.30
2018-11-14T22:40:16.480Z,30.30
2018-11-14T22:42:45.353Z,33.70
2018-11-14T22:45:15.900Z,29.70
2018-11-14T22:47:44.826Z,29.00
2018-11-14T22:50:14.689Z,26.70
2018-11-14T22:52:43.941Z,26.67
2018-11-14T22:55:13.637Z,29.73
2018-11-14T22:57:42.888Z,23.63
2018-11-14T23:00:20.849Z,23.60
2018-11-14T23:02:51.166Z,24.47
2018-11-14T23:05:19.849Z,19.80
2018-11-14T23:07:49.708Z,20.70
2018-11-14T23:10:18.945Z,25.23
2018-11-14T23:12:47.960Z,19.40
2018-11-14T23:15:16.651Z,19.30
2018-11-14T23:17:45.286Z,22.83
2018-11-14T23:20:14.933Z,20.47
2018-11-14T23:22:44.220Z,22.60
2018-11-14T23:25:13.313Z,18.40
2018-11-14T23:27:43.317Z,22.40
2018-11-14T23:30:13.064Z,17.10
2018-11-14T23:32:42.802Z,21.40
2018-11-14T23:35:17.399Z,22.73
2018-11-14T23:37:48.028Z,20.83
2018-11-14T23:40:16.657Z,21.63
2018-11-14T23:42:45.260Z,27.67
2018-11-14T23:45:14.928Z,23.83
2018-11-14T23:47:44.314Z,24.83
2018-11-14T23:50:17.686Z,19.63
2018-11-14T23:52:47.252Z,25.30
2018-11-14T23:55:16.617Z,18.10
2018-11-14T23:57:45.336Z,26.47
